Terminal Aerodrome Forecast
Issued by NWS Portland, OR

Home | Current Version | Previous Version | Text Only | Print | Product List | Glossary On
Versions: 1 2 3 4 5 6 7 8 9 10 11 12 13 14 15 16 17 18 19 20 21 22 23 24 25 26 27 28 29 30 31 32 33 34 35 36 37 38 39 40 41 42 43 44
000
FTUS46 KPQR 211632 AAC
TAFSLE
TAF AMD
KSLE 211632Z 2117/2212 00000KT 1/4SM FG VV002
     FM211800 VRB03KT P6SM SCT015 BKN035
     FM212200 22005KT P6SM SCT015 SCT035
     FM220600 17003KT 6SM BR OVC050=

USA.gov is the U.S. government's official web portal to all federal, state and local government web resources and services.